Amity, North Carolina
Current Conditions -  °F | °C
As of 5:55 PM on Thursday 23 Oct 2014 (Local Time) from KRUQ Reporting Station
Clear Clear  
Wind Chill: 65°   Ceiling: Unl
Heat Index: 65°   Visibility: 10mi
Dew Point: 42°   Wind: 3mph
Humidity: 44%   Direction: 330°NNW
Pressure: 30"   Gusts: NA
Location:  35.7427°N, 80.712°W
Report Text: KRUQ 232155Z AUTO 33003KT 10SM CLR 18/06 A3000 RMK AO2 T01810055
Loading
Personal Weather Stations






























Interactive Weather Map New forecast layout! Learn more

10-Day Weather Forecast

Advertisements
Track Severe Weather on mobile